createdAt,value
2023-03-03T00:01:06.476Z,6.87
2023-03-03T00:04:07.975Z,6.82
2023-03-03T00:07:11.352Z,6.95
2023-03-03T00:10:14.408Z,7.13
2023-03-03T00:13:17.992Z,7.13
2023-03-03T00:16:24.105Z,6.17
2023-03-03T00:19:25.768Z,5.60
2023-03-03T00:22:31.118Z,6.80
2023-03-03T00:25:34.037Z,6.00
2023-03-03T00:28:45.860Z,6.45
2023-03-03T00:31:47.127Z,6.80
2023-03-03T00:34:49.743Z,6.35
2023-03-03T00:37:54.957Z,6.57
2023-03-03T00:40:56.366Z,6.27
2023-03-03T00:43:58.160Z,5.82
2023-03-03T00:47:12.546Z,6.30
2023-03-03T00:50:35.335Z,5.68
2023-03-03T00:53:37.384Z,5.63
2023-03-03T00:56:38.635Z,5.77
2023-03-03T00:59:40.082Z,6.00
2023-03-03T01:02:41.460Z,6.30
2023-03-03T01:05:43.105Z,6.50
2023-03-03T01:08:45.046Z,5.70
2023-03-03T01:11:46.708Z,6.03
2023-03-03T01:14:52.163Z,7.15
2023-03-03T01:17:55.134Z,5.82
2023-03-03T01:20:56.446Z,5.30
2023-03-03T01:23:58.617Z,6.28
2023-03-03T01:26:59.891Z,6.40
2023-03-03T01:30:01.602Z,6.68
2023-03-03T01:33:03.437Z,5.80
2023-03-03T01:36:05.772Z,6.13
2023-03-03T01:39:07.914Z,7.00
2023-03-03T01:42:09.374Z,7.00
2023-03-03T01:45:15.107Z,7.10
2023-03-03T01:48:22.800Z,5.80
2023-03-03T01:51:29.503Z,6.55
2023-03-03T01:54:39.686Z,6.32
2023-03-03T01:57:48.170Z,6.53
2023-03-03T02:00:52.935Z,6.80
2023-03-03T02:03:54.394Z,7.43
2023-03-03T02:07:01.190Z,6.13
2023-03-03T02:10:07.231Z,6.15
2023-03-03T02:13:08.555Z,6.60
2023-03-03T02:16:09.949Z,7.10
2023-03-03T02:19:21.738Z,7.60
2023-03-03T02:22:32.807Z,6.43
2023-03-03T02:25:44.722Z,6.82
2023-03-03T02:28:46.781Z,6.90
2023-03-03T02:31:48.340Z,6.30
2023-03-03T02:34:51.301Z,6.70
2023-03-03T02:37:53.309Z,6.65
2023-03-03T02:41:03.082Z,7.30
2023-03-03T02:44:06.653Z,6.80
2023-03-03T02:47:08.320Z,6.13
2023-03-03T02:50:10.725Z,6.70
2023-03-03T02:53:12.150Z,6.82
2023-03-03T02:56:13.512Z,7.50
2023-03-03T02:59:16.530Z,6.80
2023-03-03T03:02:18.527Z,6.75
2023-03-03T03:05:19.978Z,6.38
2023-03-03T03:08:21.336Z,5.78
2023-03-03T03:11:22.606Z,5.90
2023-03-03T03:14:24.682Z,5.53
2023-03-03T03:17:26.228Z,6.50
2023-03-03T03:20:27.619Z,5.72
2023-03-03T03:23:29.037Z,6.30
2023-03-03T03:26:30.369Z,6.20
2023-03-03T03:29:32.437Z,5.87
2023-03-03T03:32:33.709Z,5.93
2023-03-03T03:35:35.923Z,6.32
2023-03-03T03:38:37.859Z,5.85
2023-03-03T03:41:39.364Z,5.38
2023-03-03T03:44:41.454Z,5.00
2023-03-03T03:47:42.730Z,5.68
2023-03-03T03:50:44.162Z,6.28
2023-03-03T03:53:45.456Z,5.22
2023-03-03T03:56:46.914Z,6.28
2023-03-03T03:59:50.514Z,5.73
2023-03-03T04:02:51.933Z,5.43
2023-03-03T04:05:54.564Z,5.78
2023-03-03T04:08:56.103Z,6.53
2023-03-03T04:11:57.413Z,6.63
2023-03-03T04:14:59.491Z,6.00
2023-03-03T04:18:00.892Z,5.38
2023-03-03T04:21:02.340Z,5.45
2023-03-03T04:24:03.769Z,6.25
2023-03-03T04:27:05.331Z,6.53
2023-03-03T04:30:08.839Z,6.50
2023-03-03T04:33:10.342Z,6.50
2023-03-03T04:36:11.800Z,7.35
2023-03-03T04:39:13.250Z,6.80
2023-03-03T04:42:14.956Z,6.68
2023-03-03T04:45:17.455Z,7.03
2023-03-03T04:48:18.938Z,7.25
2023-03-03T04:51:20.238Z,7.45
2023-03-03T04:54:21.540Z,5.93
2023-03-03T04:57:23.009Z,5.97
2023-03-03T05:00:24.975Z,5.40
2023-03-03T05:03:27.322Z,5.57
2023-03-03T05:06:29.697Z,5.72
2023-03-03T05:09:31.017Z,5.93
2023-03-03T05:12:32.408Z,5.75
2023-03-03T05:15:34.625Z,5.83
2023-03-03T05:18:36.249Z,5.68
2023-03-03T05:21:41.773Z,5.75
2023-03-03T05:24:43.219Z,5.50
2023-03-03T05:27:44.761Z,5.72
2023-03-03T05:30:46.761Z,5.03
2023-03-03T05:33:48.200Z,4.78
2023-03-03T05:36:49.547Z,5.47
2023-03-03T05:39:50.843Z,5.13
2023-03-03T05:42:52.353Z,5.13
2023-03-03T05:45:58.230Z,5.77
2023-03-03T05:48:59.618Z,4.90
2023-03-03T05:52:01.488Z,5.93
2023-03-03T05:55:02.790Z,5.45
2023-03-03T05:58:04.226Z,5.30
2023-03-03T06:01:06.222Z,5.60
2023-03-03T06:04:07.766Z,5.72
2023-03-03T06:07:09.042Z,5.68
2023-03-03T06:10:11.020Z,5.43
2023-03-03T06:13:12.561Z,5.57
2023-03-03T06:16:14.594Z,5.03
2023-03-03T06:19:16.276Z,5.45
2023-03-03T06:22:17.604Z,6.47
2023-03-03T06:25:18.964Z,5.40
2023-03-03T06:28:20.339Z,5.78
2023-03-03T06:31:22.447Z,5.07
2023-03-03T06:34:24.028Z,5.07
2023-03-03T06:37:25.325Z,5.25
2023-03-03T06:40:26.678Z,5.00
2023-03-03T06:43:28.146Z,5.28
2023-03-03T06:46:30.420Z,5.65
2023-03-03T06:49:32.241Z,5.60
2023-03-03T06:52:33.622Z,4.95
2023-03-03T06:55:35.063Z,4.50
2023-03-03T06:58:36.499Z,4.22
2023-03-03T07:01:38.781Z,4.70
2023-03-03T07:04:40.112Z,5.07
2023-03-03T07:07:41.922Z,5.38
2023-03-03T07:10:44.136Z,4.87
2023-03-03T07:13:47.885Z,5.57
2023-03-03T07:16:57.855Z,5.03
2023-03-03T07:20:01.226Z,5.32
2023-03-03T07:23:18.419Z,4.40
2023-03-03T07:26:21.996Z,5.20
2023-03-03T07:29:25.962Z,5.10
2023-03-03T07:32:38.382Z,4.75
2023-03-03T07:35:42.645Z,4.63
2023-03-03T07:38:49.937Z,4.80
2023-03-03T07:41:51.618Z,5.30
2023-03-03T07:44:55.163Z,4.95
2023-03-03T07:48:21.049Z,4.50
2023-03-03T07:51:27.074Z,4.63
2023-03-03T07:54:31.761Z,4.00
2023-03-03T07:57:36.458Z,4.20
2023-03-03T08:01:25.930Z,4.35
2023-03-03T08:04:36.241Z,4.63
2023-03-03T08:07:37.950Z,4.30
2023-03-03T08:10:44.071Z,4.25
2023-03-03T08:13:45.825Z,4.27
2023-03-03T08:16:47.682Z,4.10
2023-03-03T08:19:51.038Z,4.22
2023-03-03T08:22:52.455Z,4.40
2023-03-03T08:25:54.181Z,4.90
2023-03-03T08:28:55.477Z,4.40
2023-03-03T08:31:56.874Z,3.97
2023-03-03T08:34:58.849Z,3.75
2023-03-03T08:38:00.746Z,3.80
2023-03-03T08:41:02.259Z,3.80
2023-03-03T08:44:04.074Z,4.33
2023-03-03T08:47:05.984Z,4.10
2023-03-03T08:50:08.693Z,4.30
2023-03-03T08:53:11.608Z,4.82
2023-03-03T08:56:12.929Z,5.35
2023-03-03T08:59:14.370Z,4.90
2023-03-03T09:02:16.415Z,4.95
2023-03-03T09:05:19.899Z,4.10
2023-03-03T09:08:21.443Z,4.20
2023-03-03T09:11:25.441Z,3.83
2023-03-03T09:14:28.852Z,3.90
2023-03-03T09:17:32.848Z,5.10
2023-03-03T09:20:37.075Z,4.45
2023-03-03T09:23:41.773Z,4.65
2023-03-03T09:26:45.806Z,4.63
2023-03-03T09:29:47.216Z,4.78
2023-03-03T09:32:48.498Z,5.07
2023-03-03T09:35:52.848Z,4.60
2023-03-03T09:38:55.883Z,5.13
2023-03-03T09:42:38.003Z,4.27
2023-03-03T09:45:58.972Z,4.95
2023-03-03T09:49:17.822Z,4.70
2023-03-03T09:52:31.153Z,4.70
2023-03-03T09:55:42.955Z,4.88
2023-03-03T09:58:55.388Z,4.80
2023-03-03T10:02:18.058Z,4.53
2023-03-03T10:05:28.180Z,5.10
2023-03-03T10:08:45.530Z,4.43
2023-03-03T10:11:53.349Z,5.72
2023-03-03T10:15:11.422Z,5.17
2023-03-03T10:18:24.842Z,5.10
2023-03-03T10:21:31.557Z,5.38
2023-03-03T10:24:42.180Z,5.78
2023-03-03T10:27:56.040Z,5.25
2023-03-03T10:31:12.197Z,5.43
2023-03-03T10:34:29.303Z,6.25
2023-03-03T10:37:42.009Z,6.75
2023-03-03T10:40:50.532Z,5.97
2023-03-03T10:44:11.612Z,6.63
2023-03-03T10:47:33.516Z,6.17
2023-03-03T10:50:49.347Z,6.13
2023-03-03T10:54:05.235Z,7.15
2023-03-03T10:57:16.515Z,6.63
2023-03-03T11:00:24.315Z,5.82
2023-03-03T11:04:13.395Z,6.13
2023-03-03T11:07:21.710Z,7.13
2023-03-03T11:10:50.777Z,7.47
2023-03-03T11:14:00.997Z,7.47
2023-03-03T11:17:10.878Z,6.53
2023-03-03T11:20:26.854Z,7.13
2023-03-03T11:23:54.718Z,6.85
2023-03-03T11:27:14.902Z,6.57
2023-03-03T11:30:29.580Z,7.20
2023-03-03T11:33:37.301Z,6.75
2023-03-03T11:36:45.049Z,7.82
2023-03-03T11:39:48.343Z,7.07
2023-03-03T11:43:03.326Z,7.60
2023-03-03T11:46:09.394Z,6.90
2023-03-03T11:49:17.829Z,6.65
2023-03-03T11:52:29.066Z,7.65
2023-03-03T11:55:33.509Z,7.13
2023-03-03T11:58:44.881Z,6.40
2023-03-03T12:01:52.799Z,6.60
2023-03-03T12:04:59.284Z,6.88
2023-03-03T12:08:06.702Z,7.68
2023-03-03T12:11:16.770Z,6.50
2023-03-03T12:14:35.828Z,7.10
2023-03-03T12:17:51.262Z,7.30
2023-03-03T12:21:07.635Z,7.13
2023-03-03T12:24:31.106Z,7.35
2023-03-03T12:27:41.235Z,7.47
2023-03-03T12:31:07.257Z,7.03
2023-03-03T12:34:17.772Z,7.37
2023-03-03T12:37:27.942Z,7.30
2023-03-03T12:40:33.766Z,7.45
2023-03-03T12:43:54.814Z,7.72
2023-03-03T12:47:01.136Z,7.60
2023-03-03T12:50:27.081Z,7.27
2023-03-03T12:53:39.947Z,7.90
2023-03-03T12:56:48.571Z,9.18
2023-03-03T13:00:12.377Z,7.38
2023-03-03T13:03:31.570Z,7.40
2023-03-03T13:06:40.785Z,8.10
2023-03-03T13:09:59.739Z,7.32
2023-03-03T13:13:06.386Z,7.53
2023-03-03T13:16:14.980Z,7.35
2023-03-03T13:19:25.599Z,6.60
2023-03-03T13:22:41.474Z,7.97
2023-03-03T13:25:51.412Z,6.95
2023-03-03T13:29:09.011Z,6.75
2023-03-03T13:32:16.314Z,7.60
2023-03-03T13:35:28.217Z,8.10
2023-03-03T13:38:32.076Z,7.50
2023-03-03T13:41:43.412Z,7.43
2023-03-03T13:44:48.812Z,7.50
2023-03-03T13:47:58.269Z,7.53
2023-03-03T13:51:07.568Z,7.60
2023-03-03T13:54:17.395Z,8.10
2023-03-03T13:57:28.311Z,7.63
2023-03-03T14:00:54.266Z,7.80
2023-03-03T14:04:02.232Z,8.15
2023-03-03T14:07:13.728Z,7.57
2023-03-03T14:10:21.159Z,8.17
2023-03-03T14:13:29.669Z,7.60
2023-03-03T14:16:42.683Z,8.05
2023-03-03T14:19:47.935Z,7.82
2023-03-03T14:22:52.983Z,7.93
2023-03-03T14:25:58.336Z,8.43
2023-03-03T14:29:19.902Z,8.15
2023-03-03T14:32:28.427Z,7.68
2023-03-03T14:35:35.870Z,8.88
2023-03-03T14:38:41.004Z,8.40
2023-03-03T14:41:42.945Z,8.03
2023-03-03T14:44:54.728Z,8.63
2023-03-03T14:47:56.335Z,8.73
2023-03-03T14:51:03.824Z,8.13
2023-03-03T14:54:14.067Z,8.52
2023-03-03T14:57:18.368Z,9.27
2023-03-03T15:00:34.113Z,8.90
2023-03-03T15:03:37.886Z,8.48
2023-03-03T15:06:42.644Z,9.00
2023-03-03T15:09:49.624Z,8.48
2023-03-03T15:12:52.717Z,8.30
2023-03-03T15:16:02.981Z,8.67
2023-03-03T15:19:37.031Z,8.25
2023-03-03T15:22:47.268Z,8.25
2023-03-03T15:25:58.973Z,8.18
2023-03-03T15:29:08.020Z,8.50
2023-03-03T15:32:16.962Z,8.07
2023-03-03T15:35:26.888Z,7.75
2023-03-03T15:38:38.651Z,8.82
2023-03-03T15:41:44.335Z,6.57
2023-03-03T15:44:56.183Z,9.47
2023-03-03T15:48:29.486Z,8.40
2023-03-03T15:52:01.005Z,8.85
2023-03-03T15:55:24.048Z,7.88
2023-03-03T15:58:48.426Z,7.78
2023-03-03T16:01:57.707Z,8.53
2023-03-03T16:05:08.369Z,7.80
2023-03-03T16:08:14.266Z,7.80
2023-03-03T16:11:23.545Z,7.93
2023-03-03T16:14:57.845Z,7.90
2023-03-03T16:18:06.777Z,8.40
2023-03-03T16:21:21.662Z,7.70
2023-03-03T16:24:34.268Z,7.18
2023-03-03T16:27:43.173Z,7.28
2023-03-03T16:30:51.232Z,7.78
2023-03-03T16:34:00.786Z,7.63
2023-03-03T16:37:12.024Z,7.50
2023-03-03T16:40:20.254Z,7.13
2023-03-03T16:43:31.623Z,7.55
2023-03-03T16:46:39.054Z,7.93
2023-03-03T16:49:54.100Z,8.03
2023-03-03T16:53:01.120Z,7.27
2023-03-03T16:56:09.330Z,8.00
2023-03-03T16:59:52.626Z,6.93
2023-03-03T17:03:09.074Z,7.65
2023-03-03T17:06:18.540Z,7.10
2023-03-03T17:09:47.788Z,6.83
2023-03-03T17:13:25.164Z,7.53
2023-03-03T17:16:51.048Z,8.32
2023-03-03T17:20:09.280Z,8.55
2023-03-03T17:23:30.726Z,8.00
2023-03-03T17:26:50.391Z,9.00
2023-03-03T17:30:02.403Z,8.23
2023-03-03T17:33:16.477Z,8.27
2023-03-03T17:36:31.830Z,9.18
2023-03-03T17:40:03.297Z,8.98
2023-03-03T17:43:11.185Z,8.33
2023-03-03T17:46:17.689Z,7.72
2023-03-03T17:49:54.738Z,8.52
2023-03-03T17:53:13.266Z,8.02
2023-03-03T17:56:21.066Z,8.13
2023-03-03T17:59:35.200Z,8.30
2023-03-03T18:03:12.721Z,8.15
2023-03-03T18:06:55.598Z,8.05
2023-03-03T18:10:20.652Z,8.32
2023-03-03T18:13:49.509Z,8.02
2023-03-03T18:17:41.239Z,7.73
2023-03-03T18:20:59.089Z,7.93
2023-03-03T18:24:29.925Z,8.30
2023-03-03T18:27:35.682Z,8.25
2023-03-03T18:30:56.967Z,8.95
2023-03-03T18:34:02.858Z,7.50
2023-03-03T18:37:09.869Z,8.48
2023-03-03T18:40:32.521Z,10.15
2023-03-03T18:43:48.836Z,9.32
2023-03-03T18:46:53.386Z,9.95
2023-03-03T18:50:05.034Z,8.50
2023-03-03T18:53:19.278Z,9.63
2023-03-03T18:56:42.785Z,10.85
2023-03-03T18:59:56.478Z,9.70
2023-03-03T19:02:59.584Z,9.63
2023-03-03T19:06:01.913Z,9.93
2023-03-03T19:09:05.006Z,8.63
2023-03-03T19:12:08.630Z,10.35
2023-03-03T19:15:58.035Z,9.80
2023-03-03T19:19:10.803Z,10.07
2023-03-03T19:22:24.578Z,9.97
2023-03-03T19:25:27.456Z,9.35
2023-03-03T19:28:38.486Z,10.00
2023-03-03T19:31:46.772Z,9.18
2023-03-03T19:34:57.752Z,9.88
2023-03-03T19:38:11.692Z,9.47
2023-03-03T19:41:22.124Z,9.93
2023-03-03T19:44:42.379Z,10.07
2023-03-03T19:47:47.890Z,9.88
2023-03-03T19:50:58.826Z,10.27
2023-03-03T19:54:12.490Z,9.53
2023-03-03T19:57:22.725Z,9.63
2023-03-03T20:00:32.253Z,9.60
2023-03-03T20:04:06.276Z,8.50
2023-03-03T20:07:22.131Z,9.77
2023-03-03T20:10:35.387Z,9.43
2023-03-03T20:13:50.263Z,8.20
2023-03-03T20:16:56.690Z,8.30
2023-03-03T20:20:06.796Z,7.05
2023-03-03T20:23:19.573Z,6.80
2023-03-03T20:26:26.502Z,6.00
2023-03-03T20:29:43.890Z,5.40
2023-03-03T20:33:07.295Z,5.22
2023-03-03T20:36:16.030Z,5.05
2023-03-03T20:39:29.789Z,5.90
2023-03-03T20:42:46.752Z,5.80
2023-03-03T20:45:58.926Z,5.33
2023-03-03T20:49:15.695Z,5.60
2023-03-03T20:52:22.661Z,5.63
2023-03-03T20:55:32.310Z,6.30
2023-03-03T20:58:43.247Z,6.03
2023-03-03T21:01:53.107Z,5.70
2023-03-03T21:05:09.241Z,6.07
2023-03-03T21:08:10.589Z,6.85
2023-03-03T21:11:13.788Z,6.45
2023-03-03T21:14:19.023Z,5.53
2023-03-03T21:17:27.859Z,6.70
2023-03-03T21:20:31.241Z,7.13
2023-03-03T21:23:32.730Z,6.32
2023-03-03T21:26:49.644Z,6.82
2023-03-03T21:30:02.044Z,7.33
2023-03-03T21:33:03.512Z,7.60
2023-03-03T21:36:06.342Z,7.63
2023-03-03T21:39:20.352Z,7.30
2023-03-03T21:42:40.175Z,7.63
2023-03-03T21:45:43.855Z,7.77
2023-03-03T21:48:45.340Z,7.97
2023-03-03T21:51:46.797Z,6.85
2023-03-03T21:54:50.068Z,6.40
2023-03-03T21:57:52.032Z,7.00
2023-03-03T22:00:53.463Z,7.20
2023-03-03T22:03:54.837Z,8.43
2023-03-03T22:06:56.538Z,7.97
2023-03-03T22:09:58.342Z,7.88
2023-03-03T22:13:00.551Z,8.32
2023-03-03T22:16:02.122Z,6.77
2023-03-03T22:19:04.061Z,7.10
2023-03-03T22:22:05.517Z,7.82
2023-03-03T22:25:08.084Z,7.65
2023-03-03T22:28:10.174Z,7.45
2023-03-03T22:31:11.709Z,7.47
2023-03-03T22:34:13.060Z,7.50
2023-03-03T22:37:14.602Z,6.65
2023-03-03T22:40:16.380Z,8.23
2023-03-03T22:43:18.507Z,7.45
2023-03-03T22:46:19.844Z,8.27
2023-03-03T22:49:21.392Z,7.53
2023-03-03T22:52:22.907Z,8.02
2023-03-03T22:55:24.224Z,7.20
2023-03-03T22:58:26.461Z,7.73
2023-03-03T23:01:27.768Z,7.85
2023-03-03T23:04:32.212Z,7.90
2023-03-03T23:07:34.686Z,8.32
2023-03-03T23:10:36.201Z,8.43
2023-03-03T23:13:38.657Z,9.27
2023-03-03T23:16:40.413Z,8.60
2023-03-03T23:19:42.976Z,9.43
2023-03-03T23:22:44.653Z,9.63
2023-03-03T23:25:46.116Z,10.67
2023-03-03T23:28:48.027Z,9.97
2023-03-03T23:31:49.640Z,10.60
2023-03-03T23:34:51.397Z,11.27
2023-03-03T23:37:52.841Z,10.27
2023-03-03T23:40:54.320Z,10.73
2023-03-03T23:43:56.270Z,10.53
2023-03-03T23:46:57.729Z,10.32
2023-03-03T23:49:59.073Z,11.55
2023-03-03T23:53:00.494Z,12.02
2023-03-03T23:56:01.791Z,12.03
2023-03-03T23:59:03.902Z,11.43
